sensor_id;sensor_type;location;lat;lon;timestamp;P1;durP1;ratioP1;P2;durP2;ratioP2
18501;SDS011;68437;52.236;5.710;2024-01-07T00:02:06;57.93;;;22.73;;
18501;SDS011;68437;52.236;5.710;2024-01-07T00:04:32;62.27;;;23.37;;
18501;SDS011;68437;52.236;5.710;2024-01-07T00:07:00;64.63;;;24.83;;
18501;SDS011;68437;52.236;5.710;2024-01-07T00:09:28;68.33;;;24.30;;
18501;SDS011;68437;52.236;5.710;2024-01-07T00:11:55;61.70;;;24.07;;
18501;SDS011;68437;52.236;5.710;2024-01-07T00:14:22;64.63;;;25.27;;
18501;SDS011;68437;52.236;5.710;2024-01-07T00:16:48;70.40;;;25.87;;
18501;SDS011;68437;52.236;5.710;2024-01-07T00:19:15;72.20;;;26.23;;
18501;SDS011;68437;52.236;5.710;2024-01-07T00:21:42;80.17;;;28.00;;
18501;SDS011;68437;52.236;5.710;2024-01-07T00:24:09;76.60;;;29.27;;
18501;SDS011;68437;52.236;5.710;2024-01-07T00:26:37;84.10;;;32.00;;
18501;SDS011;68437;52.236;5.710;2024-01-07T00:29:04;77.47;;;28.60;;
18501;SDS011;68437;52.236;5.710;2024-01-07T00:31:31;76.60;;;28.27;;
18501;SDS011;68437;52.236;5.710;2024-01-07T00:33:58;84.90;;;29.53;;
18501;SDS011;68437;52.236;5.710;2024-01-07T00:36:24;82.90;;;30.33;;
18501;SDS011;68437;52.236;5.710;2024-01-07T00:38:54;84.23;;;28.20;;
18501;SDS011;68437;52.236;5.710;2024-01-07T00:41:21;80.40;;;27.97;;
18501;SDS011;68437;52.236;5.710;2024-01-07T00:43:50;79.30;;;28.50;;
18501;SDS011;68437;52.236;5.710;2024-01-07T00:46:17;81.67;;;29.10;;
18501;SDS011;68437;52.236;5.710;2024-01-07T00:48:44;83.67;;;29.10;;
18501;SDS011;68437;52.236;5.710;2024-01-07T00:51:11;83.40;;;29.10;;
18501;SDS011;68437;52.236;5.710;2024-01-07T00:53:37;88.10;;;28.83;;
18501;SDS011;68437;52.236;5.710;2024-01-07T00:56:05;79.43;;;28.17;;
18501;SDS011;68437;52.236;5.710;2024-01-07T00:58:32;77.70;;;28.53;;
18501;SDS011;68437;52.236;5.710;2024-01-07T01:01:00;79.97;;;29.33;;
18501;SDS011;68437;52.236;5.710;2024-01-07T01:03:27;80.00;;;28.93;;
18501;SDS011;68437;52.236;5.710;2024-01-07T01:05:54;73.67;;;28.43;;
18501;SDS011;68437;52.236;5.710;2024-01-07T01:08:20;78.50;;;28.53;;
18501;SDS011;68437;52.236;5.710;2024-01-07T01:10:48;79.10;;;28.87;;
18501;SDS011;68437;52.236;5.710;2024-01-07T01:13:15;76.43;;;28.97;;
18501;SDS011;68437;52.236;5.710;2024-01-07T01:15:41;81.73;;;29.20;;
18501;SDS011;68437;52.236;5.710;2024-01-07T01:18:10;77.90;;;29.53;;
18501;SDS011;68437;52.236;5.710;2024-01-07T01:20:50;70.43;;;27.40;;
18501;SDS011;68437;52.236;5.710;2024-01-07T01:23:17;74.83;;;28.23;;
18501;SDS011;68437;52.236;5.710;2024-01-07T01:25:44;78.40;;;29.53;;
18501;SDS011;68437;52.236;5.710;2024-01-07T01:28:11;74.10;;;27.40;;
18501;SDS011;68437;52.236;5.710;2024-01-07T01:30:39;67.23;;;26.53;;
18501;SDS011;68437;52.236;5.710;2024-01-07T01:33:06;73.70;;;28.13;;
18501;SDS011;68437;52.236;5.710;2024-01-07T01:35:34;69.40;;;27.53;;
18501;SDS011;68437;52.236;5.710;2024-01-07T01:38:01;67.43;;;26.23;;
18501;SDS011;68437;52.236;5.710;2024-01-07T01:40:28;71.73;;;26.50;;
18501;SDS011;68437;52.236;5.710;2024-01-07T01:42:56;73.33;;;28.00;;
18501;SDS011;68437;52.236;5.710;2024-01-07T01:45:23;69.97;;;27.63;;
18501;SDS011;68437;52.236;5.710;2024-01-07T01:47:49;71.27;;;27.80;;
18501;SDS011;68437;52.236;5.710;2024-01-07T01:50:16;73.40;;;29.47;;
18501;SDS011;68437;52.236;5.710;2024-01-07T01:52:45;73.87;;;27.13;;
18501;SDS011;68437;52.236;5.710;2024-01-07T01:55:12;68.83;;;27.07;;
18501;SDS011;68437;52.236;5.710;2024-01-07T01:57:40;74.53;;;28.63;;
18501;SDS011;68437;52.236;5.710;2024-01-07T02:00:10;73.00;;;28.17;;
18501;SDS011;68437;52.236;5.710;2024-01-07T02:02:38;73.63;;;29.47;;
18501;SDS011;68437;52.236;5.710;2024-01-07T02:05:05;72.67;;;28.67;;
18501;SDS011;68437;52.236;5.710;2024-01-07T02:07:32;69.80;;;27.67;;
18501;SDS011;68437;52.236;5.710;2024-01-07T02:10:01;76.43;;;29.93;;
18501;SDS011;68437;52.236;5.710;2024-01-07T02:12:30;69.37;;;27.10;;
18501;SDS011;68437;52.236;5.710;2024-01-07T02:14:57;69.30;;;27.73;;
18501;SDS011;68437;52.236;5.710;2024-01-07T02:17:24;72.37;;;28.60;;
18501;SDS011;68437;52.236;5.710;2024-01-07T02:19:51;70.93;;;27.67;;
18501;SDS011;68437;52.236;5.710;2024-01-07T02:22:18;71.03;;;27.90;;
18501;SDS011;68437;52.236;5.710;2024-01-07T02:24:46;70.23;;;27.57;;
18501;SDS011;68437;52.236;5.710;2024-01-07T02:27:13;70.70;;;26.97;;
18501;SDS011;68437;52.236;5.710;2024-01-07T02:29:39;74.47;;;28.17;;
18501;SDS011;68437;52.236;5.710;2024-01-07T02:32:06;68.80;;;26.87;;
18501;SDS011;68437;52.236;5.710;2024-01-07T02:34:33;70.07;;;27.83;;
18501;SDS011;68437;52.236;5.710;2024-01-07T02:37:00;69.53;;;27.93;;
18501;SDS011;68437;52.236;5.710;2024-01-07T02:39:27;70.00;;;27.03;;
18501;SDS011;68437;52.236;5.710;2024-01-07T02:41:55;72.10;;;27.73;;
18501;SDS011;68437;52.236;5.710;2024-01-07T02:44:21;71.07;;;27.43;;
18501;SDS011;68437;52.236;5.710;2024-01-07T02:46:48;72.37;;;27.40;;
18501;SDS011;68437;52.236;5.710;2024-01-07T02:49:15;73.33;;;27.87;;
18501;SDS011;68437;52.236;5.710;2024-01-07T02:51:42;77.70;;;29.67;;
18501;SDS011;68437;52.236;5.710;2024-01-07T02:54:10;75.90;;;30.67;;
18501;SDS011;68437;52.236;5.710;2024-01-07T02:56:36;73.07;;;27.70;;
18501;SDS011;68437;52.236;5.710;2024-01-07T02:59:04;73.03;;;27.50;;
18501;SDS011;68437;52.236;5.710;2024-01-07T03:01:31;81.07;;;31.77;;
18501;SDS011;68437;52.236;5.710;2024-01-07T03:04:05;81.90;;;31.10;;
18501;SDS011;68437;52.236;5.710;2024-01-07T03:06:32;80.67;;;30.53;;
18501;SDS011;68437;52.236;5.710;2024-01-07T03:08:58;81.33;;;31.30;;
18501;SDS011;68437;52.236;5.710;2024-01-07T03:11:28;81.43;;;29.70;;
18501;SDS011;68437;52.236;5.710;2024-01-07T03:13:55;82.97;;;30.07;;
18501;SDS011;68437;52.236;5.710;2024-01-07T03:16:24;81.60;;;28.53;;
18501;SDS011;68437;52.236;5.710;2024-01-07T03:18:52;87.10;;;30.07;;
18501;SDS011;68437;52.236;5.710;2024-01-07T03:21:20;82.00;;;30.37;;
18501;SDS011;68437;52.236;5.710;2024-01-07T03:23:47;76.47;;;28.50;;
18501;SDS011;68437;52.236;5.710;2024-01-07T03:26:15;77.03;;;29.47;;
18501;SDS011;68437;52.236;5.710;2024-01-07T03:28:43;79.30;;;29.83;;
18501;SDS011;68437;52.236;5.710;2024-01-07T03:31:11;86.40;;;31.43;;
18501;SDS011;68437;52.236;5.710;2024-01-07T03:33:41;87.37;;;32.70;;
18501;SDS011;68437;52.236;5.710;2024-01-07T03:36:08;80.30;;;30.23;;
18501;SDS011;68437;52.236;5.710;2024-01-07T03:38:39;85.30;;;32.00;;
18501;SDS011;68437;52.236;5.710;2024-01-07T03:41:07;84.87;;;29.83;;
18501;SDS011;68437;52.236;5.710;2024-01-07T03:43:33;75.80;;;29.43;;
18501;SDS011;68437;52.236;5.710;2024-01-07T03:46:06;73.73;;;28.97;;
18501;SDS011;68437;52.236;5.710;2024-01-07T03:48:33;72.87;;;28.80;;
18501;SDS011;68437;52.236;5.710;2024-01-07T03:51:01;71.43;;;27.30;;
18501;SDS011;68437;52.236;5.710;2024-01-07T03:53:32;72.40;;;27.77;;
18501;SDS011;68437;52.236;5.710;2024-01-07T03:56:00;67.90;;;27.40;;
18501;SDS011;68437;52.236;5.710;2024-01-07T03:58:28;68.83;;;27.27;;
18501;SDS011;68437;52.236;5.710;2024-01-07T04:00:54;65.07;;;26.03;;
18501;SDS011;68437;52.236;5.710;2024-01-07T04:03:24;65.97;;;26.13;;
18501;SDS011;68437;52.236;5.710;2024-01-07T04:05:50;61.93;;;24.77;;
18501;SDS011;68437;52.236;5.710;2024-01-07T04:08:19;60.50;;;25.23;;
18501;SDS011;68437;52.236;5.710;2024-01-07T04:10:45;59.40;;;24.80;;
18501;SDS011;68437;52.236;5.710;2024-01-07T04:13:12;55.80;;;24.20;;
18501;SDS011;68437;52.236;5.710;2024-01-07T04:15:39;63.33;;;25.20;;
18501;SDS011;68437;52.236;5.710;2024-01-07T04:18:09;57.27;;;24.43;;
18501;SDS011;68437;52.236;5.710;2024-01-07T04:20:36;52.37;;;23.40;;
18501;SDS011;68437;52.236;5.710;2024-01-07T04:23:03;49.33;;;22.17;;
18501;SDS011;68437;52.236;5.710;2024-01-07T04:25:31;48.87;;;21.60;;
18501;SDS011;68437;52.236;5.710;2024-01-07T04:27:58;51.90;;;21.47;;
18501;SDS011;68437;52.236;5.710;2024-01-07T04:30:25;48.57;;;21.03;;
18501;SDS011;68437;52.236;5.710;2024-01-07T04:32:52;50.83;;;21.87;;
18501;SDS011;68437;52.236;5.710;2024-01-07T04:35:19;50.03;;;22.50;;
18501;SDS011;68437;52.236;5.710;2024-01-07T04:37:46;45.90;;;20.13;;
18501;SDS011;68437;52.236;5.710;2024-01-07T04:40:12;46.63;;;20.93;;
18501;SDS011;68437;52.236;5.710;2024-01-07T04:42:40;45.70;;;19.53;;
18501;SDS011;68437;52.236;5.710;2024-01-07T04:45:07;43.13;;;19.47;;
18501;SDS011;68437;52.236;5.710;2024-01-07T04:47:34;45.70;;;20.83;;
18501;SDS011;68437;52.236;5.710;2024-01-07T04:50:01;49.00;;;21.17;;
18501;SDS011;68437;52.236;5.710;2024-01-07T04:52:29;44.50;;;20.13;;
18501;SDS011;68437;52.236;5.710;2024-01-07T04:54:56;43.50;;;19.97;;
18501;SDS011;68437;52.236;5.710;2024-01-07T04:57:23;47.33;;;20.40;;
18501;SDS011;68437;52.236;5.710;2024-01-07T04:59:51;45.53;;;19.83;;
18501;SDS011;68437;52.236;5.710;2024-01-07T05:02:19;48.80;;;21.73;;
18501;SDS011;68437;52.236;5.710;2024-01-07T05:04:46;46.23;;;20.60;;
18501;SDS011;68437;52.236;5.710;2024-01-07T05:07:13;48.07;;;22.00;;
18501;SDS011;68437;52.236;5.710;2024-01-07T05:09:39;45.20;;;18.63;;
18501;SDS011;68437;52.236;5.710;2024-01-07T05:12:06;45.93;;;18.83;;
18501;SDS011;68437;52.236;5.710;2024-01-07T05:14:33;42.77;;;18.93;;
18501;SDS011;68437;52.236;5.710;2024-01-07T05:17:03;40.13;;;17.80;;
18501;SDS011;68437;52.236;5.710;2024-01-07T05:19:30;39.53;;;18.20;;
18501;SDS011;68437;52.236;5.710;2024-01-07T05:21:57;38.93;;;17.90;;
18501;SDS011;68437;52.236;5.710;2024-01-07T05:24:25;39.03;;;17.40;;
18501;SDS011;68437;52.236;5.710;2024-01-07T05:26:51;39.47;;;18.20;;
18501;SDS011;68437;52.236;5.710;2024-01-07T05:29:18;44.53;;;19.40;;
18501;SDS011;68437;52.236;5.710;2024-01-07T05:31:45;41.13;;;18.13;;
18501;SDS011;68437;52.236;5.710;2024-01-07T05:34:13;43.43;;;18.77;;
18501;SDS011;68437;52.236;5.710;2024-01-07T05:36:40;42.80;;;19.27;;
18501;SDS011;68437;52.236;5.710;2024-01-07T05:39:07;42.57;;;19.80;;
18501;SDS011;68437;52.236;5.710;2024-01-07T05:41:36;42.90;;;19.00;;
18501;SDS011;68437;52.236;5.710;2024-01-07T05:44:03;43.67;;;19.73;;
18501;SDS011;68437;52.236;5.710;2024-01-07T05:46:32;43.90;;;19.73;;
18501;SDS011;68437;52.236;5.710;2024-01-07T05:48:59;43.90;;;19.93;;
18501;SDS011;68437;52.236;5.710;2024-01-07T05:51:27;42.73;;;20.33;;
18501;SDS011;68437;52.236;5.710;2024-01-07T05:53:54;45.07;;;20.47;;
18501;SDS011;68437;52.236;5.710;2024-01-07T05:56:21;41.80;;;19.13;;
18501;SDS011;68437;52.236;5.710;2024-01-07T05:58:47;46.17;;;21.40;;
18501;SDS011;68437;52.236;5.710;2024-01-07T06:01:17;42.30;;;19.47;;
18501;SDS011;68437;52.236;5.710;2024-01-07T06:03:45;42.13;;;19.77;;
18501;SDS011;68437;52.236;5.710;2024-01-07T06:06:12;41.93;;;19.70;;
18501;SDS011;68437;52.236;5.710;2024-01-07T06:08:40;41.10;;;18.60;;
18501;SDS011;68437;52.236;5.710;2024-01-07T06:11:07;44.33;;;20.43;;
18501;SDS011;68437;52.236;5.710;2024-01-07T06:13:34;42.83;;;19.27;;
18501;SDS011;68437;52.236;5.710;2024-01-07T06:16:01;41.67;;;19.17;;
18501;SDS011;68437;52.236;5.710;2024-01-07T06:18:28;43.97;;;19.37;;
18501;SDS011;68437;52.236;5.710;2024-01-07T06:20:55;40.87;;;18.40;;
18501;SDS011;68437;52.236;5.710;2024-01-07T06:23:22;38.90;;;19.07;;
18501;SDS011;68437;52.236;5.710;2024-01-07T06:25:52;40.40;;;18.73;;
18501;SDS011;68437;52.236;5.710;2024-01-07T06:28:20;41.03;;;19.00;;
18501;SDS011;68437;52.236;5.710;2024-01-07T06:30:47;43.90;;;20.60;;
18501;SDS011;68437;52.236;5.710;2024-01-07T06:33:14;47.17;;;20.17;;
18501;SDS011;68437;52.236;5.710;2024-01-07T06:35:45;41.93;;;19.70;;
18501;SDS011;68437;52.236;5.710;2024-01-07T06:38:12;47.67;;;20.90;;
18501;SDS011;68437;52.236;5.710;2024-01-07T06:40:40;45.13;;;21.17;;
18501;SDS011;68437;52.236;5.710;2024-01-07T06:43:10;44.77;;;20.10;;
18501;SDS011;68437;52.236;5.710;2024-01-07T06:45:36;46.77;;;20.33;;
18501;SDS011;68437;52.236;5.710;2024-01-07T06:48:03;44.97;;;20.93;;
18501;SDS011;68437;52.236;5.710;2024-01-07T06:50:33;47.23;;;21.67;;
18501;SDS011;68437;52.236;5.710;2024-01-07T06:53:00;44.73;;;21.50;;
18501;SDS011;68437;52.236;5.710;2024-01-07T06:55:27;46.50;;;20.40;;
18501;SDS011;68437;52.236;5.710;2024-01-07T06:57:55;45.03;;;20.60;;
18501;SDS011;68437;52.236;5.710;2024-01-07T07:00:23;46.13;;;21.00;;
18501;SDS011;68437;52.236;5.710;2024-01-07T07:02:50;49.77;;;21.50;;
18501;SDS011;68437;52.236;5.710;2024-01-07T07:05:18;46.07;;;21.33;;
18501;SDS011;68437;52.236;5.710;2024-01-07T07:07:47;46.03;;;20.27;;
18501;SDS011;68437;52.236;5.710;2024-01-07T07:10:14;50.23;;;23.30;;
18501;SDS011;68437;52.236;5.710;2024-01-07T07:12:41;47.03;;;22.93;;
18501;SDS011;68437;52.236;5.710;2024-01-07T07:15:08;45.63;;;20.67;;
18501;SDS011;68437;52.236;5.710;2024-01-07T07:17:37;47.50;;;22.47;;
18501;SDS011;68437;52.236;5.710;2024-01-07T07:20:05;46.57;;;22.27;;
18501;SDS011;68437;52.236;5.710;2024-01-07T07:22:33;45.27;;;20.30;;
18501;SDS011;68437;52.236;5.710;2024-01-07T07:24:59;43.60;;;19.80;;
18501;SDS011;68437;52.236;5.710;2024-01-07T07:27:27;44.17;;;19.00;;
18501;SDS011;68437;52.236;5.710;2024-01-07T07:29:57;38.60;;;19.00;;
18501;SDS011;68437;52.236;5.710;2024-01-07T07:32:23;37.73;;;18.00;;
18501;SDS011;68437;52.236;5.710;2024-01-07T07:34:51;36.93;;;16.53;;
18501;SDS011;68437;52.236;5.710;2024-01-07T07:37:18;35.97;;;16.33;;
18501;SDS011;68437;52.236;5.710;2024-01-07T07:39:45;35.20;;;17.37;;
18501;SDS011;68437;52.236;5.710;2024-01-07T07:42:12;38.60;;;16.80;;
18501;SDS011;68437;52.236;5.710;2024-01-07T07:44:38;36.03;;;16.30;;
18501;SDS011;68437;52.236;5.710;2024-01-07T07:47:05;34.73;;;16.20;;
18501;SDS011;68437;52.236;5.710;2024-01-07T07:49:33;36.77;;;17.63;;
18501;SDS011;68437;52.236;5.710;2024-01-07T07:52:03;36.00;;;16.37;;
18501;SDS011;68437;52.236;5.710;2024-01-07T07:54:30;35.00;;;15.90;;
18501;SDS011;68437;52.236;5.710;2024-01-07T07:56:57;33.33;;;16.97;;
18501;SDS011;68437;52.236;5.710;2024-01-07T07:59:27;38.33;;;17.43;;
18501;SDS011;68437;52.236;5.710;2024-01-07T08:01:54;36.73;;;17.60;;
18501;SDS011;68437;52.236;5.710;2024-01-07T08:04:21;40.60;;;18.93;;
18501;SDS011;68437;52.236;5.710;2024-01-07T08:06:48;39.97;;;18.60;;
18501;SDS011;68437;52.236;5.710;2024-01-07T08:09:16;39.30;;;19.53;;
18501;SDS011;68437;52.236;5.710;2024-01-07T08:11:43;37.00;;;18.00;;
18501;SDS011;68437;52.236;5.710;2024-01-07T08:14:09;36.20;;;17.10;;
18501;SDS011;68437;52.236;5.710;2024-01-07T08:16:36;37.47;;;17.57;;
18501;SDS011;68437;52.236;5.710;2024-01-07T08:19:03;32.50;;;15.37;;
18501;SDS011;68437;52.236;5.710;2024-01-07T08:21:30;33.40;;;15.83;;
18501;SDS011;68437;52.236;5.710;2024-01-07T08:23:57;34.30;;;15.87;;
18501;SDS011;68437;52.236;5.710;2024-01-07T08:26:26;31.53;;;15.13;;
18501;SDS011;68437;52.236;5.710;2024-01-07T08:28:52;31.50;;;15.60;;
18501;SDS011;68437;52.236;5.710;2024-01-07T08:31:19;30.10;;;14.63;;
18501;SDS011;68437;52.236;5.710;2024-01-07T08:33:46;31.63;;;13.87;;
18501;SDS011;68437;52.236;5.710;2024-01-07T08:36:13;32.43;;;14.77;;
18501;SDS011;68437;52.236;5.710;2024-01-07T08:38:40;32.07;;;14.70;;
18501;SDS011;68437;52.236;5.710;2024-01-07T08:41:06;34.53;;;15.23;;
18501;SDS011;68437;52.236;5.710;2024-01-07T08:43:35;32.87;;;13.90;;
18501;SDS011;68437;52.236;5.710;2024-01-07T08:46:02;32.17;;;15.20;;
18501;SDS011;68437;52.236;5.710;2024-01-07T08:48:30;34.13;;;14.63;;
18501;SDS011;68437;52.236;5.710;2024-01-07T08:50:57;32.53;;;15.47;;
18501;SDS011;68437;52.236;5.710;2024-01-07T08:53:24;34.80;;;15.63;;
18501;SDS011;68437;52.236;5.710;2024-01-07T08:55:54;30.97;;;13.97;;
18501;SDS011;68437;52.236;5.710;2024-01-07T08:58:21;29.20;;;14.17;;
18501;SDS011;68437;52.236;5.710;2024-01-07T09:00:49;32.97;;;13.97;;
18501;SDS011;68437;52.236;5.710;2024-01-07T09:03:15;28.60;;;13.93;;
18501;SDS011;68437;52.236;5.710;2024-01-07T09:05:43;25.93;;;12.93;;
18501;SDS011;68437;52.236;5.710;2024-01-07T09:08:10;26.77;;;12.20;;
18501;SDS011;68437;52.236;5.710;2024-01-07T09:10:39;28.80;;;12.10;;
18501;SDS011;68437;52.236;5.710;2024-01-07T09:13:06;25.63;;;11.20;;
18501;SDS011;68437;52.236;5.710;2024-01-07T09:15:33;23.37;;;10.60;;
18501;SDS011;68437;52.236;5.710;2024-01-07T09:18:01;24.67;;;10.53;;
18501;SDS011;68437;52.236;5.710;2024-01-07T09:20:28;22.67;;;9.70;;
18501;SDS011;68437;52.236;5.710;2024-01-07T09:22:55;20.43;;;9.63;;
18501;SDS011;68437;52.236;5.710;2024-01-07T09:25:21;21.47;;;8.97;;
18501;SDS011;68437;52.236;5.710;2024-01-07T09:27:48;23.27;;;9.60;;
18501;SDS011;68437;52.236;5.710;2024-01-07T09:30:15;18.37;;;7.93;;
18501;SDS011;68437;52.236;5.710;2024-01-07T09:32:42;21.70;;;9.73;;
18501;SDS011;68437;52.236;5.710;2024-01-07T09:35:11;19.53;;;8.63;;
18501;SDS011;68437;52.236;5.710;2024-01-07T09:37:37;17.97;;;8.63;;
18501;SDS011;68437;52.236;5.710;2024-01-07T09:40:05;20.73;;;8.57;;
18501;SDS011;68437;52.236;5.710;2024-01-07T09:42:33;17.37;;;7.90;;
18501;SDS011;68437;52.236;5.710;2024-01-07T09:45:00;19.27;;;9.00;;
18501;SDS011;68437;52.236;5.710;2024-01-07T09:47:29;20.43;;;8.17;;
18501;SDS011;68437;52.236;5.710;2024-01-07T09:49:56;17.27;;;7.63;;
18501;SDS011;68437;52.236;5.710;2024-01-07T09:52:24;15.63;;;7.57;;
18501;SDS011;68437;52.236;5.710;2024-01-07T09:54:55;16.17;;;6.60;;
18501;SDS011;68437;52.236;5.710;2024-01-07T09:57:25;19.07;;;7.17;;
18501;SDS011;68437;52.236;5.710;2024-01-07T09:59:57;14.73;;;6.77;;
18501;SDS011;68437;52.236;5.710;2024-01-07T10:02:28;14.17;;;7.00;;
18501;SDS011;68437;52.236;5.710;2024-01-07T10:04:55;12.97;;;6.07;;
18501;SDS011;68437;52.236;5.710;2024-01-07T10:07:22;11.97;;;6.17;;
18501;SDS011;68437;52.236;5.710;2024-01-07T10:09:51;12.80;;;6.03;;
18501;SDS011;68437;52.236;5.710;2024-01-07T10:12:22;12.40;;;6.70;;
18501;SDS011;68437;52.236;5.710;2024-01-07T10:14:49;14.73;;;6.23;;
18501;SDS011;68437;52.236;5.710;2024-01-07T10:17:19;10.43;;;5.53;;
18501;SDS011;68437;52.236;5.710;2024-01-07T10:19:48;13.77;;;5.70;;
18501;SDS011;68437;52.236;5.710;2024-01-07T10:22:15;12.23;;;5.63;;
18501;SDS011;68437;52.236;5.710;2024-01-07T10:24:42;12.63;;;5.63;;
18501;SDS011;68437;52.236;5.710;2024-01-07T10:27:10;11.30;;;5.83;;
18501;SDS011;68437;52.236;5.710;2024-01-07T10:29:38;11.43;;;5.53;;
18501;SDS011;68437;52.236;5.710;2024-01-07T10:32:05;13.10;;;5.83;;
18501;SDS011;68437;52.236;5.710;2024-01-07T10:34:32;11.40;;;5.30;;
18501;SDS011;68437;52.236;5.710;2024-01-07T10:37:00;11.90;;;5.60;;
18501;SDS011;68437;52.236;5.710;2024-01-07T10:39:30;12.00;;;6.23;;
18501;SDS011;68437;52.236;5.710;2024-01-07T10:41:57;14.53;;;6.57;;
18501;SDS011;68437;52.236;5.710;2024-01-07T10:44:27;13.33;;;5.77;;
18501;SDS011;68437;52.236;5.710;2024-01-07T10:46:58;11.57;;;5.57;;
18501;SDS011;68437;52.236;5.710;2024-01-07T10:49:26;12.60;;;5.80;;
18501;SDS011;68437;52.236;5.710;2024-01-07T10:51:56;13.70;;;5.97;;
18501;SDS011;68437;52.236;5.710;2024-01-07T10:54:32;10.93;;;5.03;;
18501;SDS011;68437;52.236;5.710;2024-01-07T10:57:02;11.63;;;4.83;;
18501;SDS011;68437;52.236;5.710;2024-01-07T10:59:36;10.37;;;4.97;;
18501;SDS011;68437;52.236;5.710;2024-01-07T11:02:04;10.00;;;4.83;;
18501;SDS011;68437;52.236;5.710;2024-01-07T11:04:33;12.60;;;5.23;;
18501;SDS011;68437;52.236;5.710;2024-01-07T11:07:08;7.90;;;4.23;;
18501;SDS011;68437;52.236;5.710;2024-01-07T11:09:43;9.20;;;4.53;;
18501;SDS011;68437;52.236;5.710;2024-01-07T11:12:16;8.97;;;4.20;;
18501;SDS011;68437;52.236;5.710;2024-01-07T11:14:45;9.27;;;4.40;;
18501;SDS011;68437;52.236;5.710;2024-01-07T11:17:20;10.77;;;4.63;;
18501;SDS011;68437;52.236;5.710;2024-01-07T11:20:07;10.63;;;4.70;;
18501;SDS011;68437;52.236;5.710;2024-01-07T11:22:41;11.60;;;4.73;;
18501;SDS011;68437;52.236;5.710;2024-01-07T11:27:57;13.10;;;4.23;;
18501;SDS011;68437;52.236;5.710;2024-01-07T11:30:26;8.30;;;4.20;;
18501;SDS011;68437;52.236;5.710;2024-01-07T11:32:57;8.20;;;4.40;;
18501;SDS011;68437;52.236;5.710;2024-01-07T11:38:19;11.03;;;4.83;;
18501;SDS011;68437;52.236;5.710;2024-01-07T11:40:47;8.40;;;4.50;;
18501;SDS011;68437;52.236;5.710;2024-01-07T11:43:15;8.50;;;4.57;;
18501;SDS011;68437;52.236;5.710;2024-01-07T11:45:44;8.77;;;4.20;;
18501;SDS011;68437;52.236;5.710;2024-01-07T11:48:12;6.20;;;3.83;;
18501;SDS011;68437;52.236;5.710;2024-01-07T11:50:39;8.00;;;4.00;;
18501;SDS011;68437;52.236;5.710;2024-01-07T11:53:05;10.63;;;3.90;;
18501;SDS011;68437;52.236;5.710;2024-01-07T11:55:33;8.50;;;3.43;;
18501;SDS011;68437;52.236;5.710;2024-01-07T11:58:03;7.07;;;3.40;;
18501;SDS011;68437;52.236;5.710;2024-01-07T12:00:30;7.23;;;3.50;;
18501;SDS011;68437;52.236;5.710;2024-01-07T12:03:00;7.70;;;3.10;;
18501;SDS011;68437;52.236;5.710;2024-01-07T12:05:29;6.47;;;3.50;;
18501;SDS011;68437;52.236;5.710;2024-01-07T12:07:56;9.33;;;3.90;;
18501;SDS011;68437;52.236;5.710;2024-01-07T12:10:26;6.87;;;3.23;;
18501;SDS011;68437;52.236;5.710;2024-01-07T12:12:53;8.33;;;4.33;;
18501;SDS011;68437;52.236;5.710;2024-01-07T12:15:21;5.10;;;3.20;;
18501;SDS011;68437;52.236;5.710;2024-01-07T12:17:55;5.67;;;3.17;;
18501;SDS011;68437;52.236;5.710;2024-01-07T12:20:24;6.13;;;3.13;;
18501;SDS011;68437;52.236;5.710;2024-01-07T12:22:51;6.23;;;2.83;;
18501;SDS011;68437;52.236;5.710;2024-01-07T12:25:21;5.90;;;2.90;;
18501;SDS011;68437;52.236;5.710;2024-01-07T12:27:49;6.23;;;3.13;;
18501;SDS011;68437;52.236;5.710;2024-01-07T12:30:18;5.70;;;2.97;;
18501;SDS011;68437;52.236;5.710;2024-01-07T12:32:45;6.80;;;2.87;;
18501;SDS011;68437;52.236;5.710;2024-01-07T12:35:13;5.60;;;3.33;;
18501;SDS011;68437;52.236;5.710;2024-01-07T12:37:43;5.23;;;3.00;;
18501;SDS011;68437;52.236;5.710;2024-01-07T12:40:10;7.53;;;3.00;;
18501;SDS011;68437;52.236;5.710;2024-01-07T12:42:38;5.27;;;3.10;;
18501;SDS011;68437;52.236;5.710;2024-01-07T12:45:09;5.83;;;3.07;;
18501;SDS011;68437;52.236;5.710;2024-01-07T12:47:38;6.10;;;3.83;;
18501;SDS011;68437;52.236;5.710;2024-01-07T12:50:05;7.30;;;3.20;;
18501;SDS011;68437;52.236;5.710;2024-01-07T12:52:33;7.23;;;3.37;;
18501;SDS011;68437;52.236;5.710;2024-01-07T12:55:02;6.93;;;3.80;;
18501;SDS011;68437;52.236;5.710;2024-01-07T12:57:29;6.23;;;3.10;;
18501;SDS011;68437;52.236;5.710;2024-01-07T12:59:58;5.50;;;2.83;;
18501;SDS011;68437;52.236;5.710;2024-01-07T13:02:25;8.87;;;3.80;;
18501;SDS011;68437;52.236;5.710;2024-01-07T13:04:52;6.63;;;3.77;;
18501;SDS011;68437;52.236;5.710;2024-01-07T13:07:18;66.83;;;26.10;;
18501;SDS011;68437;52.236;5.710;2024-01-07T13:09:51;17.33;;;8.40;;
18501;SDS011;68437;52.236;5.710;2024-01-07T13:12:19;8.43;;;3.47;;
18501;SDS011;68437;52.236;5.710;2024-01-07T13:14:45;6.93;;;3.47;;
18501;SDS011;68437;52.236;5.710;2024-01-07T13:17:13;5.50;;;3.47;;
18501;SDS011;68437;52.236;5.710;2024-01-07T13:19:42;12.10;;;7.00;;
18501;SDS011;68437;52.236;5.710;2024-01-07T13:22:09;8.90;;;4.47;;
18501;SDS011;68437;52.236;5.710;2024-01-07T13:24:36;13.73;;;6.60;;
18501;SDS011;68437;52.236;5.710;2024-01-07T13:27:03;44.13;;;19.97;;
18501;SDS011;68437;52.236;5.710;2024-01-07T13:29:31;20.00;;;9.23;;
18501;SDS011;68437;52.236;5.710;2024-01-07T13:31:58;21.50;;;10.50;;
18501;SDS011;68437;52.236;5.710;2024-01-07T13:34:25;17.73;;;9.43;;
18501;SDS011;68437;52.236;5.710;2024-01-07T13:36:52;7.83;;;4.10;;
18501;SDS011;68437;52.236;5.710;2024-01-07T13:39:20;6.10;;;3.20;;
18501;SDS011;68437;52.236;5.710;2024-01-07T13:41:50;23.10;;;11.20;;
18501;SDS011;68437;52.236;5.710;2024-01-07T13:44:18;18.00;;;9.57;;
18501;SDS011;68437;52.236;5.710;2024-01-07T13:46:46;17.67;;;8.17;;
18501;SDS011;68437;52.236;5.710;2024-01-07T13:49:13;13.47;;;5.93;;
18501;SDS011;68437;52.236;5.710;2024-01-07T13:51:40;28.07;;;12.30;;
18501;SDS011;68437;52.236;5.710;2024-01-07T13:54:07;7.07;;;3.00;;
18501;SDS011;68437;52.236;5.710;2024-01-07T13:56:35;5.60;;;2.80;;
18501;SDS011;68437;52.236;5.710;2024-01-07T13:59:06;22.53;;;9.63;;
18501;SDS011;68437;52.236;5.710;2024-01-07T14:01:33;13.27;;;6.83;;
18501;SDS011;68437;52.236;5.710;2024-01-07T14:04:01;39.60;;;19.43;;
18501;SDS011;68437;52.236;5.710;2024-01-07T14:06:30;4.77;;;2.63;;
18501;SDS011;68437;52.236;5.710;2024-01-07T14:08:57;6.73;;;3.57;;
18501;SDS011;68437;52.236;5.710;2024-01-07T14:11:24;19.73;;;11.27;;
18501;SDS011;68437;52.236;5.710;2024-01-07T14:13:53;8.57;;;3.83;;
18501;SDS011;68437;52.236;5.710;2024-01-07T14:16:19;8.63;;;3.50;;
18501;SDS011;68437;52.236;5.710;2024-01-07T14:18:46;6.97;;;3.80;;
18501;SDS011;68437;52.236;5.710;2024-01-07T14:21:15;15.00;;;7.43;;
18501;SDS011;68437;52.236;5.710;2024-01-07T14:23:42;6.87;;;3.33;;
18501;SDS011;68437;52.236;5.710;2024-01-07T14:26:11;14.27;;;7.40;;
18501;SDS011;68437;52.236;5.710;2024-01-07T14:28:38;11.83;;;5.80;;
18501;SDS011;68437;52.236;5.710;2024-01-07T14:31:05;16.63;;;9.27;;
18501;SDS011;68437;52.236;5.710;2024-01-07T14:33:32;22.63;;;9.50;;
18501;SDS011;68437;52.236;5.710;2024-01-07T14:35:59;13.57;;;4.43;;
18501;SDS011;68437;52.236;5.710;2024-01-07T14:38:29;7.63;;;3.80;;